createdAt,value
2024-03-15T00:00:20.030Z,2.07
2024-03-15T00:02:49.794Z,2.11
2024-03-15T00:05:16.824Z,1.95
2024-03-15T00:07:43.612Z,1.97
2024-03-15T00:10:10.989Z,2.01
2024-03-15T00:12:38.092Z,1.90
2024-03-15T00:15:05.259Z,1.93
2024-03-15T00:17:33.385Z,1.95
2024-03-15T00:20:00.656Z,2.04
2024-03-15T00:22:27.725Z,2.08
2024-03-15T00:24:56.883Z,2.08
2024-03-15T00:27:23.883Z,2.10
2024-03-15T00:29:51.508Z,1.92
2024-03-15T00:32:18.350Z,1.88
2024-03-15T00:34:45.082Z,1.82
2024-03-15T00:37:11.894Z,1.41
2024-03-15T00:39:38.623Z,1.06
2024-03-15T00:42:05.482Z,0.96
2024-03-15T00:44:32.652Z,1.36
2024-03-15T00:46:59.541Z,1.57
2024-03-15T00:49:26.415Z,1.74
2024-03-15T00:51:53.312Z,1.72
2024-03-15T00:54:20.249Z,1.56
2024-03-15T00:56:47.533Z,1.54
2024-03-15T00:59:14.197Z,1.57
2024-03-15T01:01:41.317Z,1.45
2024-03-15T01:04:08.037Z,1.47
2024-03-15T01:06:34.874Z,1.60
2024-03-15T01:09:01.659Z,1.50
2024-03-15T01:11:29.775Z,1.18
2024-03-15T01:13:58.771Z,1.17
2024-03-15T01:16:27.222Z,1.48
2024-03-15T01:18:55.461Z,1.65
2024-03-15T01:21:27.854Z,1.72
2024-03-15T01:23:56.184Z,1.62
2024-03-15T01:26:23.306Z,1.51
2024-03-15T01:28:50.016Z,1.47
2024-03-15T01:31:16.713Z,1.48
2024-03-15T01:33:43.506Z,1.46
2024-03-15T01:36:12.321Z,1.49
2024-03-15T01:38:39.541Z,1.55
2024-03-15T01:41:06.963Z,1.57
2024-03-15T01:43:33.969Z,1.54
2024-03-15T01:46:00.964Z,1.38
2024-03-15T01:48:28.273Z,1.48
2024-03-15T01:50:55.297Z,1.36
2024-03-15T01:53:22.953Z,1.50
2024-03-15T01:55:49.673Z,1.49
2024-03-15T01:58:16.452Z,1.26
2024-03-15T02:00:43.313Z,1.27
2024-03-15T02:03:10.408Z,1.17
2024-03-15T02:05:37.229Z,1.28
2024-03-15T02:08:09.569Z,1.43
2024-03-15T02:10:36.690Z,1.57
2024-03-15T02:13:03.454Z,1.56
2024-03-15T02:15:30.228Z,1.66
2024-03-15T02:18:02.803Z,1.69
2024-03-15T02:20:29.589Z,1.58
2024-03-15T02:22:59.587Z,0.97
2024-03-15T02:25:26.347Z,1.12
2024-03-15T02:27:53.029Z,1.20
2024-03-15T02:30:21.724Z,1.05
2024-03-15T02:32:48.491Z,1.12
2024-03-15T02:35:24.543Z,1.39
2024-03-15T02:38:02.449Z,1.58
2024-03-15T02:40:29.575Z,1.60
2024-03-15T02:42:56.383Z,1.28
2024-03-15T02:45:23.624Z,1.13
2024-03-15T02:47:50.821Z,1.21
2024-03-15T02:50:20.384Z,1.07
2024-03-15T02:52:49.828Z,1.42
2024-03-15T02:55:16.935Z,1.59
2024-03-15T02:57:43.880Z,1.57
2024-03-15T03:00:11.273Z,1.71
2024-03-15T03:02:38.179Z,1.82
2024-03-15T03:05:05.229Z,1.76
2024-03-15T03:07:32.292Z,1.63
2024-03-15T03:09:59.603Z,1.58
2024-03-15T03:12:26.566Z,1.53
2024-03-15T03:14:53.252Z,1.49
2024-03-15T03:17:19.897Z,1.50
2024-03-15T03:19:46.584Z,1.57
2024-03-15T03:22:14.306Z,1.61
2024-03-15T03:24:42.177Z,1.49
2024-03-15T03:27:10.284Z,1.42
2024-03-15T03:29:37.430Z,1.24
2024-03-15T03:32:04.693Z,1.49
2024-03-15T03:34:31.691Z,1.59
2024-03-15T03:36:58.381Z,1.31
2024-03-15T03:39:27.124Z,1.08
2024-03-15T03:41:55.960Z,1.12
2024-03-15T03:44:22.615Z,1.33
2024-03-15T03:46:49.406Z,1.49
2024-03-15T03:49:16.037Z,1.42
2024-03-15T03:51:43.082Z,1.67
2024-03-15T03:54:10.465Z,1.79
2024-03-15T03:56:40.845Z,1.83
2024-03-15T03:59:07.658Z,1.87
2024-03-15T04:01:35.391Z,1.90
2024-03-15T04:04:02.277Z,1.71
2024-03-15T04:06:29.086Z,1.77
2024-03-15T04:08:55.846Z,1.79
2024-03-15T04:11:22.633Z,1.71
2024-03-15T04:13:53.717Z,1.73
2024-03-15T04:16:21.040Z,1.62
2024-03-15T04:18:48.056Z,1.78
2024-03-15T04:21:17.624Z,1.74
2024-03-15T04:23:45.619Z,1.67
2024-03-15T04:26:12.395Z,1.53
2024-03-15T04:28:41.571Z,1.33
2024-03-15T04:31:08.366Z,1.56
2024-03-15T04:33:37.127Z,1.69
2024-03-15T04:36:06.386Z,1.64
2024-03-15T04:38:34.057Z,1.77
2024-03-15T04:41:11.202Z,1.78
2024-03-15T04:43:38.372Z,1.81
2024-03-15T04:46:07.818Z,1.92
2024-03-15T04:48:34.650Z,1.99
2024-03-15T04:51:01.858Z,1.98
2024-03-15T04:53:28.705Z,2.02
2024-03-15T04:55:55.944Z,2.01
2024-03-15T04:58:22.844Z,2.00
2024-03-15T05:00:49.915Z,2.01
2024-03-15T05:03:16.850Z,1.90
2024-03-15T05:05:43.674Z,1.99
2024-03-15T05:08:10.375Z,1.79
2024-03-15T05:10:37.318Z,1.34
2024-03-15T05:13:07.802Z,1.19
2024-03-15T05:15:35.117Z,1.48
2024-03-15T05:18:02.139Z,1.62
2024-03-15T05:20:29.250Z,1.69
2024-03-15T05:22:55.967Z,1.75
2024-03-15T05:25:23.812Z,1.79
2024-03-15T05:27:51.445Z,1.82
2024-03-15T05:30:20.163Z,1.91
2024-03-15T05:32:47.800Z,2.00
2024-03-15T05:35:19.940Z,2.06
2024-03-15T05:37:47.056Z,2.07
2024-03-15T05:40:14.283Z,2.15
2024-03-15T05:42:42.297Z,2.20
2024-03-15T05:45:09.367Z,1.86
2024-03-15T05:47:36.309Z,1.80
2024-03-15T05:50:05.872Z,2.05
2024-03-15T05:52:35.778Z,2.32
2024-03-15T05:55:10.652Z,2.62
2024-03-15T05:57:37.467Z,2.94
2024-03-15T06:00:16.677Z,3.33
2024-03-15T06:02:45.328Z,4.10
2024-03-15T06:05:12.385Z,6.01
2024-03-15T06:07:39.065Z,7.79
2024-03-15T06:10:07.240Z,9.73
2024-03-15T06:12:34.439Z,9.88
2024-03-15T06:15:01.203Z,11.50
2024-03-15T06:17:27.906Z,12.61
2024-03-15T06:19:57.172Z,13.55
2024-03-15T06:22:25.403Z,11.75
2024-03-15T06:24:53.538Z,9.75
2024-03-15T06:27:21.744Z,9.57
2024-03-15T06:29:53.903Z,9.27
2024-03-15T06:32:27.395Z,8.66
2024-03-15T06:34:54.908Z,8.54
2024-03-15T06:37:23.909Z,8.62
2024-03-15T06:39:56.980Z,10.34
2024-03-15T06:42:38.993Z,10.36
2024-03-15T06:45:25.334Z,11.41
2024-03-15T06:48:04.266Z,13.77
2024-03-15T06:50:49.843Z,14.72
2024-03-15T06:53:19.140Z,12.54
2024-03-15T06:55:46.625Z,11.19
2024-03-15T06:58:22.462Z,11.78
2024-03-15T07:00:52.145Z,13.19
2024-03-15T07:03:20.056Z,12.34
2024-03-15T07:05:46.887Z,12.38
2024-03-15T07:08:16.249Z,12.87
2024-03-15T07:10:43.122Z,13.61
2024-03-15T07:13:10.637Z,13.34
2024-03-15T07:15:37.539Z,12.93
2024-03-15T07:18:06.663Z,12.16
2024-03-15T07:20:33.647Z,11.03
2024-03-15T07:23:00.530Z,10.15
2024-03-15T07:25:27.273Z,10.59
2024-03-15T07:27:56.437Z,10.08
2024-03-15T07:30:25.846Z,9.97
2024-03-15T07:32:55.471Z,9.49
2024-03-15T07:35:23.395Z,10.42
2024-03-15T07:37:51.326Z,12.36
2024-03-15T07:40:19.333Z,14.54
2024-03-15T07:42:46.632Z,16.90
2024-03-15T17:16:33.389Z,4.84
2024-03-15T17:19:00.224Z,4.77
2024-03-15T17:21:27.089Z,4.84
2024-03-15T17:23:53.789Z,4.80
2024-03-15T17:26:20.529Z,4.65
2024-03-15T17:28:47.310Z,4.80
2024-03-15T17:31:14.024Z,4.62
2024-03-15T17:33:40.835Z,4.81
2024-03-15T17:36:10.406Z,4.91
2024-03-15T17:38:37.335Z,4.98
2024-03-15T17:41:04.285Z,5.02
2024-03-15T17:43:31.209Z,4.97
2024-03-15T17:45:58.054Z,4.87
2024-03-15T17:48:26.453Z,5.00
2024-03-15T17:50:54.870Z,5.00
2024-03-15T17:53:21.664Z,4.99
2024-03-15T17:55:51.564Z,5.02
2024-03-15T17:58:18.322Z,5.11
2024-03-15T18:00:46.428Z,5.09
2024-03-15T18:03:13.647Z,5.02
2024-03-15T18:05:40.376Z,4.99
2024-03-15T18:08:09.476Z,4.91
2024-03-15T18:10:36.934Z,4.97
2024-03-15T18:13:04.133Z,4.95
2024-03-15T18:15:31.018Z,4.93
2024-03-15T18:17:57.917Z,4.67
2024-03-15T18:20:24.760Z,4.60
2024-03-15T18:22:51.526Z,4.59
2024-03-15T18:25:18.276Z,4.43
2024-03-15T18:27:45.519Z,4.31
2024-03-15T18:30:12.417Z,4.32
2024-03-15T18:32:39.146Z,4.26
2024-03-15T18:35:05.996Z,4.31
2024-03-15T18:37:34.073Z,4.30
2024-03-15T18:40:01.033Z,4.08
2024-03-15T18:42:28.128Z,4.20
2024-03-15T18:44:57.944Z,4.16
2024-03-15T18:47:24.926Z,4.18
2024-03-15T18:49:53.191Z,4.15
2024-03-15T18:52:20.639Z,3.87
2024-03-15T18:54:50.664Z,3.68
2024-03-15T18:57:18.269Z,3.74
2024-03-15T18:59:45.853Z,3.67
2024-03-15T19:02:13.867Z,3.81
2024-03-15T19:04:41.200Z,3.90
2024-03-15T19:07:08.093Z,3.86
2024-03-15T19:09:34.937Z,3.97
2024-03-15T19:12:01.686Z,3.90
2024-03-15T19:14:30.438Z,3.89
2024-03-15T19:16:57.165Z,3.82
2024-03-15T19:19:24.062Z,3.64
2024-03-15T19:21:50.890Z,3.79
2024-03-15T19:24:18.609Z,3.79
2024-03-15T19:26:45.999Z,3.50
2024-03-15T19:29:13.124Z,3.50
2024-03-15T19:31:39.848Z,3.71
2024-03-15T19:34:06.747Z,3.85
2024-03-15T19:36:33.650Z,3.94
2024-03-15T19:39:00.597Z,3.87
2024-03-15T19:41:27.263Z,3.98
2024-03-15T19:43:54.094Z,4.06
2024-03-15T19:46:20.850Z,4.14
2024-03-15T19:48:48.546Z,4.27
2024-03-15T19:51:24.340Z,4.19
2024-03-15T19:53:51.163Z,4.11
2024-03-15T19:56:18.281Z,4.13
2024-03-15T19:58:46.015Z,4.15
2024-03-15T20:01:13.162Z,3.92
2024-03-15T20:03:40.377Z,3.71
2024-03-15T20:06:07.422Z,3.78
2024-03-15T20:08:34.122Z,3.84
2024-03-15T20:11:00.825Z,3.72
2024-03-15T20:13:27.546Z,3.57
2024-03-15T20:18:21.892Z,3.37
2024-03-15T20:20:48.879Z,3.40
2024-03-15T20:23:15.625Z,3.11
2024-03-15T20:25:43.745Z,3.38
2024-03-15T20:28:10.686Z,3.35
2024-03-15T20:30:38.308Z,3.12
2024-03-15T20:33:06.032Z,3.19
2024-03-15T20:35:32.864Z,3.07
2024-03-15T20:38:02.345Z,2.94
2024-03-15T20:40:29.398Z,3.21
2024-03-15T20:42:56.692Z,3.33
2024-03-15T20:45:24.285Z,3.41
2024-03-15T20:47:51.816Z,3.46
2024-03-15T20:50:21.022Z,3.57
2024-03-15T20:52:48.459Z,3.65
2024-03-15T20:55:15.359Z,3.69
2024-03-15T20:57:42.629Z,3.58
2024-03-15T21:00:13.935Z,3.68
2024-03-15T21:02:41.728Z,3.60
2024-03-15T21:05:15.227Z,3.51
2024-03-15T21:07:42.822Z,3.39
2024-03-15T21:10:12.064Z,3.31
2024-03-15T21:12:39.723Z,3.19
2024-03-15T21:15:07.141Z,3.25
2024-03-15T21:17:36.188Z,3.35
2024-03-15T21:20:13.893Z,3.47
2024-03-15T21:22:44.155Z,3.47
2024-03-15T21:25:14.242Z,3.47
2024-03-15T21:27:41.895Z,3.64
2024-03-15T21:30:09.182Z,3.39
2024-03-15T21:32:36.455Z,3.61
2024-03-15T21:35:07.195Z,3.52
2024-03-15T21:37:35.330Z,3.26
2024-03-15T21:40:03.585Z,3.02
2024-03-15T21:42:30.475Z,3.20
2024-03-15T21:44:58.817Z,3.32
2024-03-15T21:47:25.679Z,3.08
2024-03-15T21:49:52.547Z,3.05
2024-03-15T21:52:19.510Z,3.09
2024-03-15T21:54:49.166Z,3.23
2024-03-15T21:57:16.037Z,3.23
2024-03-15T21:59:46.434Z,3.29
2024-03-15T22:02:16.993Z,3.34
2024-03-15T22:04:43.865Z,3.10
2024-03-15T22:07:10.753Z,3.06
2024-03-15T22:09:37.792Z,2.87
2024-03-15T22:12:05.380Z,2.54
2024-03-15T22:14:33.807Z,2.68
2024-03-15T22:17:01.053Z,2.81
2024-03-15T22:19:27.795Z,2.73
2024-03-15T22:21:54.789Z,2.74
2024-03-15T22:24:22.126Z,2.83
2024-03-15T22:26:49.102Z,2.76
2024-03-15T22:29:15.928Z,2.80
2024-03-15T22:31:45.524Z,2.91
2024-03-15T22:34:12.473Z,3.11
2024-03-15T22:36:39.411Z,3.25
2024-03-15T22:39:06.220Z,3.31
2024-03-15T22:41:33.622Z,3.19
2024-03-15T22:44:00.404Z,3.21
2024-03-15T22:46:27.854Z,3.19
2024-03-15T22:48:54.821Z,3.17
2024-03-15T22:51:21.669Z,3.04
2024-03-15T22:53:48.636Z,3.05
2024-03-15T22:56:15.387Z,3.01
2024-03-15T22:58:42.652Z,3.03
2024-03-15T23:01:12.657Z,3.11
2024-03-15T23:03:40.906Z,3.09
2024-03-15T23:06:11.292Z,3.10
2024-03-15T23:08:38.770Z,3.06
2024-03-15T23:11:06.322Z,3.11
2024-03-15T23:13:36.376Z,3.32
2024-03-15T23:16:04.970Z,3.13
2024-03-15T23:18:31.986Z,2.97
2024-03-15T23:20:58.708Z,2.88
2024-03-15T23:23:26.439Z,2.94
2024-03-15T23:25:53.483Z,3.10
2024-03-15T23:28:20.962Z,3.26
2024-03-15T23:30:48.326Z,3.06
2024-03-15T23:33:15.916Z,3.16
2024-03-15T23:35:42.703Z,3.14
2024-03-15T23:38:09.560Z,3.12
2024-03-15T23:40:39.185Z,3.15
2024-03-15T23:43:09.689Z,3.11
2024-03-15T23:45:37.227Z,2.89
2024-03-15T23:48:04.506Z,2.85
2024-03-15T23:50:31.275Z,2.50
2024-03-15T23:52:58.124Z,2.63
2024-03-15T23:55:24.959Z,2.77
2024-03-15T23:57:51.858Z,2.88
